createdAt,value
2019-04-16T00:00:47.479Z,9.87
2019-04-16T00:03:17.082Z,9.77
2019-04-16T00:05:48.240Z,9.74
2019-04-16T00:08:27.924Z,9.72
2019-04-16T00:11:01.215Z,9.68
2019-04-16T00:13:35.223Z,9.63
2019-04-16T00:16:05.041Z,9.63
2019-04-16T00:18:34.554Z,9.61
2019-04-16T00:21:14.611Z,9.60
2019-04-16T00:24:01.658Z,9.59
2019-04-16T00:26:31.339Z,9.59
2019-04-16T00:29:02.074Z,9.52
2019-04-16T00:31:34.273Z,9.46
2019-04-16T00:34:04.508Z,9.43
2019-04-16T00:36:34.004Z,9.41
2019-04-16T00:39:05.017Z,9.34
2019-04-16T00:41:34.596Z,9.33
2019-04-16T00:44:04.441Z,9.30
2019-04-16T00:46:34.007Z,9.26
2019-04-16T00:49:03.871Z,9.12
2019-04-16T00:51:33.455Z,9.13
2019-04-16T00:54:03.111Z,9.15
2019-04-16T00:56:32.739Z,9.10
2019-04-16T00:59:02.246Z,9.05
2019-04-16T01:01:31.856Z,9.04
2019-04-16T01:04:01.508Z,9.08
2019-04-16T01:06:31.047Z,9.10
2019-04-16T01:09:00.928Z,9.12
2019-04-16T01:11:30.508Z,9.06
2019-04-16T01:14:00.058Z,9.10
2019-04-16T01:16:30.348Z,9.06
2019-04-16T01:19:00.802Z,8.97
2019-04-16T01:21:30.521Z,8.89
2019-04-16T01:24:00.156Z,8.88
2019-04-16T01:26:29.661Z,8.89
2019-04-16T01:29:06.871Z,8.89
2019-04-16T01:31:54.108Z,8.94
2019-04-16T01:34:25.427Z,8.99
2019-04-16T01:36:55.003Z,8.92
2019-04-16T01:39:31.809Z,8.91
2019-04-16T01:42:01.318Z,8.91
2019-04-16T01:44:31.395Z,8.95
2019-04-16T01:47:04.317Z,9.03
2019-04-16T01:49:32.902Z,9.05
2019-04-16T01:52:02.507Z,9.05
2019-04-16T01:54:32.101Z,8.99
2019-04-16T01:57:01.789Z,9.03
2019-04-16T01:59:35.585Z,9.05
2019-04-16T02:02:02.837Z,9.07
2019-04-16T02:04:32.433Z,8.99
2019-04-16T02:07:02.014Z,8.97
2019-04-16T02:09:34.700Z,8.98
2019-04-16T02:12:03.071Z,8.99
2019-04-16T02:14:32.610Z,8.96
2019-04-16T02:17:02.292Z,8.91
2019-04-16T02:19:32.830Z,8.89
2019-04-16T02:22:03.153Z,8.91
2019-04-16T02:24:32.800Z,8.77
2019-04-16T02:27:02.328Z,8.81
2019-04-16T02:29:33.551Z,8.84
2019-04-16T02:32:03.648Z,8.84
2019-04-16T02:34:33.224Z,8.84
2019-04-16T02:37:03.551Z,8.85
2019-04-16T02:39:47.735Z,8.82
2019-04-16T02:42:04.802Z,8.81
2019-04-16T02:44:34.681Z,8.76
2019-04-16T02:47:06.604Z,8.74
2019-04-16T02:49:35.565Z,8.70
2019-04-16T02:52:14.767Z,8.57
2019-04-16T02:54:42.668Z,8.58
2019-04-16T02:57:27.967Z,8.57
2019-04-16T02:59:59.412Z,8.52
2019-04-16T03:02:30.653Z,8.47
2019-04-16T03:05:07.990Z,8.49
2019-04-16T03:07:37.646Z,8.48
2019-04-16T03:10:12.012Z,8.42
2019-04-16T03:12:38.814Z,8.43
2019-04-16T03:15:09.074Z,8.45
2019-04-16T03:17:42.723Z,8.48
2019-04-16T03:20:13.735Z,8.48
2019-04-16T03:22:43.510Z,8.50
2019-04-16T03:25:14.657Z,8.49
2019-04-16T03:27:44.336Z,8.49
2019-04-16T03:30:13.988Z,8.47
2019-04-16T03:32:50.726Z,8.49
2019-04-16T03:35:25.529Z,8.51
2019-04-16T03:37:51.793Z,8.49
2019-04-16T03:40:24.894Z,8.49
2019-04-16T03:42:52.781Z,8.47
2019-04-16T03:45:22.314Z,8.42
2019-04-16T03:47:52.343Z,8.43
2019-04-16T03:50:22.187Z,8.38
2019-04-16T03:52:51.780Z,8.38
2019-04-16T03:55:25.254Z,8.34
2019-04-16T03:57:52.625Z,8.32
2019-04-16T04:00:22.788Z,8.32
2019-04-16T04:02:55.070Z,8.29
2019-04-16T04:05:25.191Z,8.28
2019-04-16T04:07:55.477Z,8.25
2019-04-16T04:10:30.979Z,8.24
2019-04-16T04:12:56.436Z,8.24
2019-04-16T04:15:27.106Z,8.22
2019-04-16T04:17:57.000Z,8.20
2019-04-16T04:20:26.554Z,8.19
2019-04-16T04:22:57.100Z,8.19
2019-04-16T04:25:27.501Z,8.22
2019-04-16T04:27:57.179Z,8.18
2019-04-16T04:30:28.936Z,8.18
2019-04-16T04:32:57.928Z,8.18
2019-04-16T04:35:27.454Z,8.16
2019-04-16T04:37:57.062Z,8.12
2019-04-16T04:40:26.713Z,8.11
2019-04-16T04:42:57.669Z,8.07
2019-04-16T04:45:27.606Z,8.06
2019-04-16T04:47:57.120Z,7.99
2019-04-16T04:50:26.667Z,7.98
2019-04-16T04:52:56.262Z,7.98
2019-04-16T04:55:26.863Z,7.96
2019-04-16T04:57:56.754Z,7.95
2019-04-16T05:00:26.375Z,7.90
2019-04-16T05:02:55.879Z,7.93
2019-04-16T05:05:39.144Z,7.97
2019-04-16T05:08:08.722Z,7.95
2019-04-16T05:10:42.666Z,7.98
2019-04-16T05:13:10.023Z,8.01
2019-04-16T05:15:39.619Z,8.07
2019-04-16T05:18:10.819Z,8.11
2019-04-16T05:20:40.610Z,8.10
2019-04-16T05:23:10.218Z,8.10
2019-04-16T05:25:39.803Z,8.16
2019-04-16T05:28:12.183Z,8.18
2019-04-16T05:30:40.635Z,8.26
2019-04-16T05:33:10.210Z,8.27
2019-04-16T05:35:41.345Z,8.29
2019-04-16T05:38:11.137Z,8.34
2019-04-16T05:40:40.692Z,8.44
2019-04-16T05:43:10.217Z,8.50
2019-04-16T05:45:39.868Z,8.56
2019-04-16T05:48:09.480Z,8.60
2019-04-16T05:50:39.098Z,8.64
2019-04-16T05:53:09.330Z,8.72
2019-04-16T05:55:43.312Z,8.82
2019-04-16T05:58:13.053Z,8.89
2019-04-16T06:00:49.945Z,8.95
2019-04-16T06:03:21.837Z,9.03
2019-04-16T06:05:50.783Z,9.08
2019-04-16T06:08:20.298Z,9.20
2019-04-16T06:10:51.155Z,9.34
2019-04-16T06:13:22.493Z,9.42
2019-04-16T06:15:56.789Z,9.54
2019-04-16T06:18:37.929Z,9.65
2019-04-16T06:21:05.946Z,9.77
2019-04-16T06:23:35.379Z,9.83
2019-04-16T06:26:24.713Z,9.93
2019-04-16T06:29:01.574Z,9.94
2019-04-16T06:31:36.243Z,10.07
2019-04-16T06:34:12.646Z,10.20
2019-04-16T06:36:43.820Z,10.25
2019-04-16T06:39:15.058Z,10.34
2019-04-16T06:41:47.820Z,10.42
2019-04-16T06:44:19.982Z,10.48
2019-04-16T06:46:51.161Z,10.52
2019-04-16T06:49:27.998Z,10.63
2019-04-16T06:52:00.241Z,10.74
2019-04-16T06:54:40.399Z,10.85
2019-04-16T06:57:17.657Z,10.92
2019-04-16T06:59:59.592Z,11.04
2019-04-16T07:03:01.741Z,11.13
2019-04-16T07:05:18.043Z,11.17
2019-04-16T07:08:02.080Z,11.27
2019-04-16T07:10:43.972Z,11.40
2019-04-16T07:13:09.949Z,11.50
2019-04-16T07:15:35.992Z,11.58
2019-04-16T07:18:06.293Z,11.62
2019-04-16T07:20:36.074Z,11.70
2019-04-16T07:23:05.658Z,11.83
2019-04-16T07:25:40.358Z,11.98
2019-04-16T07:28:14.099Z,12.03
2019-04-16T07:31:01.710Z,12.15
2019-04-16T07:33:35.809Z,12.24
2019-04-16T07:36:19.495Z,12.30
2019-04-16T07:38:50.655Z,12.42
2019-04-16T07:41:21.917Z,12.51
2019-04-16T07:44:10.230Z,12.61
2019-04-16T07:46:38.777Z,12.73
2019-04-16T07:49:14.704Z,12.88
2019-04-16T07:52:06.998Z,12.96
2019-04-16T07:54:37.584Z,13.10
2019-04-16T07:57:07.187Z,13.14
2019-04-16T07:59:36.701Z,13.39
2019-04-16T08:02:06.342Z,13.57
2019-04-16T08:04:36.475Z,13.66
2019-04-16T08:07:06.315Z,13.76
2019-04-16T08:09:35.862Z,13.87
2019-04-16T08:12:10.848Z,13.99
2019-04-16T08:14:36.798Z,14.17
2019-04-16T08:17:06.329Z,14.35
2019-04-16T08:19:37.430Z,14.63
2019-04-16T08:22:07.150Z,14.85
2019-04-16T08:24:38.293Z,14.88
2019-04-16T08:27:09.880Z,14.90
2019-04-16T08:29:39.149Z,14.97
2019-04-16T08:32:08.839Z,15.10
2019-04-16T08:34:38.419Z,15.10
2019-04-16T08:37:08.742Z,15.07
2019-04-16T08:39:39.805Z,14.95
2019-04-16T08:42:09.758Z,15.05
2019-04-16T08:44:39.363Z,15.13
2019-04-16T08:47:12.096Z,15.18
2019-04-16T08:49:40.345Z,15.51
2019-04-16T08:52:10.972Z,15.58
2019-04-16T08:54:40.723Z,15.66
2019-04-16T08:57:10.489Z,15.88
2019-04-16T08:59:42.680Z,15.79
2019-04-16T09:02:11.438Z,16.04
2019-04-16T09:04:41.034Z,16.26
2019-04-16T09:07:13.413Z,16.28
2019-04-16T09:09:48.286Z,16.26
2019-04-16T09:12:17.955Z,16.44
2019-04-16T09:14:51.579Z,16.62
2019-04-16T09:17:24.539Z,16.84
2019-04-16T09:20:01.787Z,16.93
2019-04-16T09:22:30.109Z,16.84
2019-04-16T09:25:01.274Z,16.80
2019-04-16T09:27:35.264Z,16.67
2019-04-16T09:30:20.250Z,16.62
2019-04-16T09:32:52.353Z,16.57
2019-04-16T09:35:28.569Z,16.57
2019-04-16T09:38:00.930Z,16.38
2019-04-16T09:40:32.162Z,15.96
2019-04-16T09:43:16.009Z,15.91
2019-04-16T09:45:37.299Z,16.20
2019-04-16T09:48:06.784Z,16.23
2019-04-16T09:50:36.397Z,16.01
2019-04-16T09:53:05.991Z,16.00
2019-04-16T09:55:35.619Z,15.47
2019-04-16T09:58:22.700Z,15.54
2019-04-16T10:01:05.916Z,15.43
2019-04-16T10:03:39.671Z,15.36
2019-04-16T10:06:09.260Z,15.24
2019-04-16T10:08:41.794Z,15.17
2019-04-16T10:11:10.179Z,14.98
2019-04-16T10:13:39.775Z,14.90
2019-04-16T10:16:09.504Z,14.89
2019-04-16T10:18:39.107Z,14.96
2019-04-16T10:21:08.707Z,14.84
2019-04-16T10:23:56.223Z,14.74
2019-04-16T10:26:25.818Z,14.64
2019-04-16T10:28:56.958Z,14.44
2019-04-16T10:31:27.632Z,14.33
2019-04-16T10:33:57.227Z,14.43
2019-04-16T10:36:26.777Z,14.34
2019-04-16T10:38:58.986Z,14.33
2019-04-16T10:41:32.998Z,14.44
2019-04-16T10:44:04.258Z,14.32
2019-04-16T10:46:48.765Z,14.41
2019-04-16T10:49:34.963Z,14.49
2019-04-16T10:52:06.857Z,14.40
2019-04-16T10:54:38.342Z,14.46
2019-04-16T10:57:10.650Z,14.66
2019-04-16T10:59:50.707Z,14.61
2019-04-16T11:02:28.851Z,14.50
2019-04-16T11:05:05.667Z,14.54
2019-04-16T11:07:36.253Z,14.45
2019-04-16T11:10:11.785Z,14.38
2019-04-16T11:12:41.039Z,14.38
2019-04-16T11:15:12.094Z,14.16
2019-04-16T11:17:41.775Z,14.21
2019-04-16T11:20:11.820Z,14.33
2019-04-16T11:22:41.388Z,14.33
2019-04-16T11:25:11.158Z,14.38
2019-04-16T11:27:41.182Z,14.36
2019-04-16T11:30:14.632Z,14.29
2019-04-16T11:32:44.155Z,14.19
2019-04-16T11:35:17.628Z,14.02
2019-04-16T11:37:45.057Z,14.08
2019-04-16T11:40:14.947Z,13.70
2019-04-16T11:42:44.569Z,13.90
2019-04-16T11:45:15.209Z,13.85
2019-04-16T11:47:48.023Z,13.88
2019-04-16T11:50:16.204Z,13.99
2019-04-16T11:52:45.751Z,13.80
2019-04-16T11:55:15.559Z,13.80
2019-04-16T11:57:45.218Z,13.77
2019-04-16T12:00:23.084Z,13.97
2019-04-16T12:02:58.611Z,13.77
2019-04-16T12:05:29.957Z,13.79
2019-04-16T12:08:03.653Z,14.05
2019-04-16T12:10:40.736Z,14.05
2019-04-16T12:13:20.830Z,13.87
2019-04-16T12:15:57.684Z,13.95
2019-04-16T12:18:31.969Z,14.03
2019-04-16T12:21:02.065Z,14.11
2019-04-16T12:23:36.421Z,14.13
2019-04-16T12:26:09.724Z,14.25
2019-04-16T12:28:54.425Z,14.29
2019-04-16T12:31:41.673Z,14.45
2019-04-16T12:34:11.071Z,14.47
2019-04-16T12:36:42.958Z,14.53
2019-04-16T12:39:30.396Z,14.65
2019-04-16T12:42:19.916Z,14.63
2019-04-16T12:45:00.609Z,14.57
2019-04-16T12:47:32.775Z,14.53
2019-04-16T12:50:06.027Z,14.48
2019-04-16T12:52:38.012Z,14.42
2019-04-16T12:55:23.826Z,14.47
2019-04-16T12:57:53.385Z,14.46
2019-04-16T13:00:40.099Z,14.50
2019-04-16T13:03:18.272Z,14.52
2019-04-16T13:06:05.606Z,14.54
2019-04-16T13:08:53.762Z,14.38
2019-04-16T13:11:25.039Z,14.31
2019-04-16T13:13:56.205Z,14.37
2019-04-16T13:16:36.265Z,14.47
2019-04-16T13:19:05.865Z,14.41
2019-04-16T13:21:37.043Z,14.41
2019-04-16T13:24:08.232Z,14.53
2019-04-16T13:26:41.807Z,14.59
2019-04-16T13:29:16.690Z,14.50
2019-04-16T13:31:44.374Z,14.36
2019-04-16T13:34:18.338Z,14.51
2019-04-16T13:36:45.295Z,14.54
2019-04-16T13:39:16.544Z,14.54
2019-04-16T13:41:46.072Z,14.38
2019-04-16T13:44:23.104Z,14.33
2019-04-16T13:46:52.790Z,14.33
2019-04-16T13:49:31.639Z,14.27
2019-04-16T13:52:01.342Z,14.27
2019-04-16T13:54:38.285Z,14.24
2019-04-16T13:57:12.223Z,14.26
2019-04-16T14:00:03.056Z,14.22
2019-04-16T14:02:38.199Z,14.26
2019-04-16T14:05:10.569Z,14.21
2019-04-16T14:07:39.455Z,14.14
2019-04-16T14:10:09.224Z,14.01
2019-04-16T14:12:42.356Z,13.99
2019-04-16T14:15:11.754Z,14.08
2019-04-16T14:17:52.481Z,14.05
2019-04-16T14:20:15.233Z,14.18
2019-04-16T14:22:43.947Z,14.22
2019-04-16T14:25:13.909Z,14.16
2019-04-16T14:27:43.521Z,14.25
2019-04-16T14:30:15.402Z,14.30
2019-04-16T14:32:45.006Z,14.29
2019-04-16T14:35:32.994Z,14.30
2019-04-16T14:37:53.912Z,14.35
2019-04-16T14:40:24.147Z,14.24
2019-04-16T14:42:57.355Z,14.31
2019-04-16T14:45:27.062Z,14.21
2019-04-16T14:47:56.626Z,14.17
2019-04-16T14:50:26.297Z,14.11
2019-04-16T14:52:55.805Z,14.14
2019-04-16T14:55:35.667Z,14.06
2019-04-16T14:58:09.622Z,14.02
2019-04-16T15:00:57.322Z,13.92
2019-04-16T15:03:44.953Z,13.85
2019-04-16T15:06:17.006Z,13.77
2019-04-16T15:09:04.436Z,13.82
2019-04-16T15:11:51.589Z,13.74
2019-04-16T15:14:34.409Z,13.76
2019-04-16T15:17:17.646Z,13.75
2019-04-16T15:20:07.005Z,13.77
2019-04-16T15:22:44.265Z,13.75
2019-04-16T15:25:13.715Z,13.78
2019-04-16T15:27:44.946Z,13.70
2019-04-16T15:30:32.478Z,13.71
2019-04-16T15:33:21.902Z,13.71
2019-04-16T15:35:53.773Z,13.69
2019-04-16T15:38:26.630Z,13.67
2019-04-16T15:41:01.586Z,13.60
2019-04-16T15:43:50.879Z,13.58
2019-04-16T15:46:41.375Z,13.63
2019-04-16T15:49:26.411Z,13.51
2019-04-16T15:51:55.896Z,13.48
2019-04-16T15:54:42.350Z,13.50
2019-04-16T15:57:29.267Z,13.48
2019-04-16T16:00:03.181Z,13.43
2019-04-16T16:02:45.330Z,13.30
2019-04-16T16:05:32.532Z,13.23
2019-04-16T16:08:18.553Z,13.09
2019-04-16T16:10:52.616Z,13.18
2019-04-16T16:13:22.825Z,13.23
2019-04-16T16:15:53.532Z,13.25
2019-04-16T16:18:23.188Z,13.22
2019-04-16T16:20:52.728Z,13.13
2019-04-16T16:23:22.393Z,13.14
2019-04-16T16:25:52.021Z,13.05
2019-04-16T16:28:21.676Z,13.07
2019-04-16T16:30:51.190Z,13.09
2019-04-16T16:33:20.724Z,13.06
2019-04-16T16:35:57.506Z,13.11
2019-04-16T16:38:21.570Z,13.09
2019-04-16T16:40:51.319Z,13.18
2019-04-16T16:43:20.912Z,13.06
2019-04-16T16:45:52.151Z,13.09
2019-04-16T16:48:22.417Z,13.12
2019-04-16T16:50:51.989Z,13.09
2019-04-16T16:53:23.275Z,13.05
2019-04-16T16:55:53.379Z,13.04
2019-04-16T16:58:40.714Z,12.99
2019-04-16T17:01:33.605Z,12.95
2019-04-16T17:04:03.601Z,12.92
2019-04-16T17:06:33.263Z,12.85
2019-04-16T17:09:03.038Z,12.88
2019-04-16T17:11:32.632Z,12.83
2019-04-16T17:14:03.144Z,12.78
2019-04-16T17:16:32.975Z,12.74
2019-04-16T17:19:02.569Z,12.76
2019-04-16T17:21:32.133Z,12.64
2019-04-16T17:24:02.142Z,12.71
2019-04-16T17:26:31.793Z,12.73
2019-04-16T17:29:01.307Z,12.65
2019-04-16T17:31:30.973Z,12.66
2019-04-16T17:34:00.558Z,12.53
2019-04-16T17:36:30.239Z,12.44
2019-04-16T17:39:00.107Z,12.47
2019-04-16T17:41:31.580Z,12.51
2019-04-16T17:44:18.655Z,12.54
2019-04-16T17:46:52.648Z,12.57
2019-04-16T17:49:29.542Z,12.54
2019-04-16T17:52:12.958Z,12.53
2019-04-16T17:54:50.059Z,12.49
2019-04-16T17:57:23.039Z,12.46
2019-04-16T17:59:54.135Z,12.47
2019-04-16T18:02:41.607Z,12.44
2019-04-16T18:05:29.091Z,12.34
2019-04-16T18:08:00.316Z,12.33
2019-04-16T18:10:47.967Z,12.21
2019-04-16T18:13:25.934Z,12.24
2019-04-16T18:15:59.665Z,12.11
2019-04-16T18:18:42.757Z,12.09
2019-04-16T18:21:29.973Z,11.96
2019-04-16T18:24:05.111Z,11.94
2019-04-16T18:26:39.262Z,12.00
2019-04-16T18:29:13.221Z,11.91
2019-04-16T18:31:57.579Z,11.92
2019-04-16T18:34:27.211Z,11.88
2019-04-16T18:37:14.253Z,11.87
2019-04-16T18:40:04.977Z,11.85
2019-04-16T18:42:32.476Z,11.84
2019-04-16T18:45:06.069Z,11.81
2019-04-16T18:47:35.461Z,11.93
2019-04-16T18:50:09.415Z,11.90
2019-04-16T18:52:39.044Z,11.91
2019-04-16T18:55:09.182Z,11.94
2019-04-16T18:57:39.300Z,11.92
2019-04-16T19:00:31.929Z,11.89
2019-04-16T19:03:02.320Z,11.92
2019-04-16T19:05:32.024Z,11.94
2019-04-16T19:08:01.584Z,11.97
2019-04-16T19:10:31.291Z,12.01
2019-04-16T19:13:00.937Z,12.04
2019-04-16T19:15:30.654Z,12.09
2019-04-16T19:18:00.309Z,12.12
2019-04-16T19:20:30.313Z,12.09
2019-04-16T19:22:59.822Z,12.13
2019-04-16T19:25:29.510Z,12.11
2019-04-16T19:28:04.638Z,12.17
2019-04-16T19:30:30.513Z,12.17
2019-04-16T19:33:01.659Z,12.06
2019-04-16T19:35:31.439Z,12.04
2019-04-16T19:38:02.348Z,12.05
2019-04-16T19:40:32.419Z,12.05
2019-04-16T19:43:03.202Z,12.08
2019-04-16T19:45:33.085Z,12.07
2019-04-16T19:48:02.605Z,12.05
2019-04-16T19:50:36.135Z,12.17
2019-04-16T19:53:03.559Z,12.09
2019-04-16T19:55:33.183Z,12.02
2019-04-16T19:58:02.700Z,12.08
2019-04-16T20:00:32.291Z,12.09
2019-04-16T20:03:01.900Z,12.05
2019-04-16T20:05:31.424Z,12.02
2019-04-16T20:08:01.043Z,12.08
2019-04-16T20:10:31.055Z,12.02
2019-04-16T20:13:01.010Z,12.04
2019-04-16T20:15:30.555Z,11.97
2019-04-16T20:18:00.083Z,11.97
2019-04-16T20:20:29.632Z,11.92
2019-04-16T20:22:59.227Z,11.89
2019-04-16T20:25:28.728Z,11.90
2019-04-16T20:27:58.269Z,11.94
2019-04-16T20:30:29.649Z,11.99
2019-04-16T20:32:59.327Z,12.01
2019-04-16T20:35:29.000Z,12.01
2019-04-16T20:37:58.584Z,12.02
2019-04-16T20:40:28.193Z,12.03
2019-04-16T20:42:57.802Z,12.02
2019-04-16T20:45:27.335Z,11.99
2019-04-16T20:47:56.922Z,12.00
2019-04-16T20:50:26.467Z,11.97
2019-04-16T20:52:56.896Z,11.99
2019-04-16T20:55:26.479Z,12.06
2019-04-16T20:57:59.256Z,12.05
2019-04-16T21:00:29.032Z,12.06
2019-04-16T21:03:02.292Z,12.05
2019-04-16T21:05:35.493Z,12.04
2019-04-16T21:08:02.865Z,12.01
2019-04-16T21:10:35.326Z,12.03
2019-04-16T21:13:03.737Z,12.00
2019-04-16T21:15:33.243Z,12.05
2019-04-16T21:18:02.847Z,12.04
2019-04-16T21:20:32.437Z,12.08
2019-04-16T21:23:03.470Z,12.06
2019-04-16T21:25:33.305Z,12.02
2019-04-16T21:28:20.788Z,12.00
2019-04-16T21:30:52.012Z,12.05
2019-04-16T21:33:28.636Z,12.04
2019-04-16T21:36:04.773Z,11.99
2019-04-16T21:38:49.888Z,11.96
2019-04-16T21:41:19.411Z,11.89
2019-04-16T21:43:48.951Z,11.91
2019-04-16T21:46:20.551Z,11.92
2019-04-16T21:48:49.777Z,11.95
2019-04-16T21:51:24.132Z,11.96
2019-04-16T21:53:50.588Z,12.02
2019-04-16T21:56:20.102Z,12.04
2019-04-16T21:58:50.292Z,12.05
2019-04-16T22:01:32.734Z,12.06
2019-04-16T22:04:13.518Z,12.08
2019-04-16T22:06:40.564Z,12.14
2019-04-16T22:09:10.273Z,12.16
2019-04-16T22:11:43.276Z,12.18
2019-04-16T22:14:11.137Z,12.15
2019-04-16T22:16:40.666Z,12.15
2019-04-16T22:19:11.111Z,12.16
2019-04-16T22:21:42.616Z,12.22
2019-04-16T22:24:12.790Z,12.21
2019-04-16T22:26:42.402Z,12.23
2019-04-16T22:29:15.385Z,12.26
2019-04-16T22:31:43.184Z,12.24
2019-04-16T22:34:12.851Z,12.30
2019-04-16T22:36:42.368Z,12.33
2019-04-16T22:39:18.973Z,12.36
2019-04-16T22:41:50.193Z,12.33
2019-04-16T22:44:38.920Z,12.31
2019-04-16T22:47:16.139Z,12.10
2019-04-16T22:49:45.752Z,12.12
2019-04-16T22:52:15.266Z,12.07
2019-04-16T22:54:44.861Z,12.07
2019-04-16T22:57:15.469Z,12.15
2019-04-16T22:59:45.115Z,12.21
2019-04-16T23:02:19.008Z,12.15
2019-04-16T23:04:48.524Z,12.16
2019-04-16T23:07:18.045Z,12.10
2019-04-16T23:09:48.704Z,12.11
2019-04-16T23:12:27.221Z,12.15
2019-04-16T23:14:53.671Z,12.13
2019-04-16T23:17:24.896Z,11.95
2019-04-16T23:19:55.480Z,11.97
2019-04-16T23:22:25.064Z,11.85
2019-04-16T23:24:55.424Z,12.02
2019-04-16T23:27:26.067Z,11.94
2019-04-16T23:29:55.582Z,11.97
2019-04-16T23:32:28.658Z,11.99
2019-04-16T23:34:56.564Z,11.84
2019-04-16T23:37:26.161Z,11.83
2019-04-16T23:39:55.773Z,11.80
2019-04-16T23:42:25.379Z,11.78
2019-04-16T23:44:58.861Z,11.59
2019-04-16T23:47:43.148Z,11.61
2019-04-16T23:50:21.271Z,11.66
2019-04-16T23:53:06.694Z,11.52
2019-04-16T23:55:34.457Z,11.67
2019-04-16T23:58:05.700Z,11.65
